createdAt,value
2019-01-14T00:01:56.480Z,94.90
2019-01-14T00:04:23.492Z,94.40
2019-01-14T00:06:50.585Z,94.60
2019-01-14T00:09:23.353Z,94.70
2019-01-14T00:11:46.505Z,94.50
2019-01-14T00:14:13.497Z,94.20
2019-01-14T00:16:40.512Z,94.00
2019-01-14T00:19:07.540Z,93.60
2019-01-14T00:21:34.733Z,93.80
2019-01-14T00:24:01.761Z,93.80
2019-01-14T00:26:28.884Z,93.60
2019-01-14T00:28:58.862Z,94.00
2019-01-14T00:31:25.850Z,94.00
2019-01-14T00:33:53.268Z,94.00
2019-01-14T00:36:20.362Z,93.70
2019-01-14T00:38:47.413Z,93.70
2019-01-14T00:41:14.445Z,94.70
2019-01-14T00:43:41.548Z,95.30
2019-01-14T00:46:08.565Z,95.40
2019-01-14T00:48:35.504Z,95.90
2019-01-14T00:51:02.589Z,96.90
2019-01-14T00:53:29.509Z,97.30
2019-01-14T00:55:56.562Z,97.30
2019-01-14T00:58:23.609Z,97.40
2019-01-14T01:00:50.625Z,97.50
2019-01-14T01:03:17.703Z,97.10
2019-01-14T01:05:44.725Z,97.20
2019-01-14T01:08:11.869Z,97.60
2019-01-14T01:10:38.939Z,97.70
2019-01-14T01:13:06.537Z,97.40
2019-01-14T01:15:33.598Z,97.40
2019-01-14T01:18:00.597Z,97.60
2019-01-14T01:20:28.853Z,98.00
2019-01-14T01:22:55.866Z,97.70
2019-01-14T01:25:22.912Z,97.60
2019-01-14T01:27:49.823Z,96.80
2019-01-14T01:30:17.827Z,96.30
2019-01-14T01:32:44.961Z,96.10
2019-01-14T01:35:12.806Z,96.20
2019-01-14T01:37:39.893Z,96.20
2019-01-14T01:40:11.275Z,96.30
2019-01-14T01:42:38.287Z,96.50
2019-01-14T01:45:06.034Z,97.30
2019-01-14T01:47:33.032Z,98.00
2019-01-14T01:50:00.236Z,98.40
2019-01-14T01:52:27.232Z,99.20
2019-01-14T01:54:54.230Z,99.10
2019-01-14T01:57:21.259Z,99.90
2019-01-14T01:59:48.447Z,99.90
2019-01-14T02:02:15.495Z,99.90
2019-01-14T02:04:42.606Z,99.90
2019-01-14T02:07:09.726Z,99.90
2019-01-14T02:09:36.754Z,99.90
2019-01-14T02:12:04.032Z,99.90
2019-01-14T02:14:31.193Z,99.90
2019-01-14T02:16:58.273Z,99.90
2019-01-14T02:19:25.319Z,99.90
2019-01-14T02:21:52.345Z,99.90
2019-01-14T02:24:19.288Z,99.90
2019-01-14T02:26:46.227Z,99.90
2019-01-14T02:29:13.223Z,99.90
2019-01-14T02:31:40.303Z,99.80
2019-01-14T02:34:07.237Z,99.90
2019-01-14T02:36:35.233Z,99.80
2019-01-14T02:39:05.221Z,99.70
2019-01-14T02:41:32.305Z,99.60
2019-01-14T02:43:59.307Z,99.70
2019-01-14T02:46:26.401Z,99.60
2019-01-14T02:48:53.392Z,99.10
2019-01-14T02:51:20.390Z,98.90
2019-01-14T02:53:47.342Z,99.20
2019-01-14T02:56:14.303Z,99.00
2019-01-14T02:58:41.387Z,99.10
2019-01-14T03:01:08.295Z,99.20
2019-01-14T03:03:35.466Z,99.20
2019-01-14T03:06:02.674Z,99.50
2019-01-14T03:08:29.691Z,98.80
2019-01-14T03:10:56.807Z,98.80
2019-01-14T03:13:23.916Z,98.80
2019-01-14T03:15:50.956Z,98.80
2019-01-14T03:18:18.019Z,99.20
2019-01-14T03:20:45.072Z,98.90
2019-01-14T03:23:12.081Z,98.90
2019-01-14T03:25:39.129Z,98.70
2019-01-14T03:28:06.115Z,98.40
2019-01-14T03:30:33.200Z,98.70
2019-01-14T03:33:00.230Z,98.10
2019-01-14T03:35:27.304Z,98.50
2019-01-14T03:37:54.464Z,98.20
2019-01-14T03:40:21.553Z,98.30
2019-01-14T03:42:48.616Z,98.00
2019-01-14T03:45:15.963Z,97.70
2019-01-14T03:47:42.879Z,98.10
2019-01-14T03:50:21.103Z,98.10
2019-01-14T03:52:48.217Z,98.00
2019-01-14T03:55:15.338Z,98.00
2019-01-14T03:57:42.429Z,98.10
2019-01-14T04:00:11.614Z,98.60
2019-01-14T04:02:40.047Z,98.00
2019-01-14T04:05:07.927Z,98.30
2019-01-14T04:07:34.929Z,98.10
2019-01-14T04:10:03.427Z,97.50
2019-01-14T04:12:30.476Z,97.40
2019-01-14T04:14:57.690Z,97.10
2019-01-14T04:17:24.874Z,97.20
2019-01-14T04:19:52.043Z,97.10
2019-01-14T04:22:19.099Z,96.70
2019-01-14T04:24:46.114Z,96.60
2019-01-14T04:27:13.057Z,97.20
2019-01-14T04:29:40.059Z,97.20
2019-01-14T04:32:07.150Z,97.20
2019-01-14T04:34:34.250Z,96.60
2019-01-14T04:37:01.268Z,96.70
2019-01-14T04:39:28.488Z,97.00
2019-01-14T04:41:55.443Z,96.50
2019-01-14T04:44:22.478Z,96.70
2019-01-14T04:46:49.433Z,96.90
2019-01-14T04:49:16.426Z,97.00
2019-01-14T04:51:43.518Z,96.50
2019-01-14T04:54:10.568Z,96.60
2019-01-14T04:56:37.617Z,96.70
2019-01-14T04:59:04.656Z,96.70
2019-01-14T05:01:31.703Z,97.00
2019-01-14T05:03:58.661Z,97.50
2019-01-14T05:06:25.782Z,97.30
2019-01-14T05:08:52.821Z,97.80
2019-01-14T05:11:19.885Z,98.70
2019-01-14T05:13:46.951Z,99.10
2019-01-14T05:16:14.017Z,99.10
2019-01-14T05:18:41.130Z,99.50
2019-01-14T05:21:08.212Z,99.90
2019-01-14T05:23:35.160Z,99.90
2019-01-14T05:26:02.171Z,99.90
2019-01-14T05:28:29.306Z,99.90
2019-01-14T05:30:56.289Z,99.90
2019-01-14T05:33:23.271Z,99.90
2019-01-14T05:35:50.285Z,99.90
2019-01-14T05:38:17.256Z,99.90
2019-01-14T05:40:44.218Z,99.90
2019-01-14T05:43:11.221Z,99.90
2019-01-14T05:45:38.207Z,99.90
2019-01-14T05:48:05.405Z,99.90
2019-01-14T05:50:32.409Z,99.90
2019-01-14T05:52:59.440Z,99.90
2019-01-14T05:55:26.358Z,99.90
2019-01-14T05:57:53.315Z,99.80
2019-01-14T06:00:27.301Z,99.20
2019-01-14T06:02:54.298Z,98.90
2019-01-14T06:05:21.322Z,99.10
2019-01-14T06:07:48.301Z,98.50
2019-01-14T06:10:15.285Z,98.20
2019-01-14T06:12:42.315Z,98.40
2019-01-14T06:15:09.525Z,97.80
2019-01-14T06:17:38.300Z,98.10
2019-01-14T06:20:07.672Z,98.70
2019-01-14T06:22:34.925Z,98.20
2019-01-14T06:25:02.005Z,98.80
2019-01-14T06:27:29.099Z,99.00
2019-01-14T06:29:56.093Z,99.60
2019-01-14T06:32:23.101Z,99.20
2019-01-14T06:34:50.086Z,99.70
2019-01-14T06:37:17.206Z,99.90
2019-01-14T06:39:44.231Z,99.90
2019-01-14T06:42:11.220Z,99.90
2019-01-14T06:44:38.362Z,99.90
2019-01-14T06:47:05.333Z,99.50
2019-01-14T06:49:32.397Z,99.20
2019-01-14T06:51:59.297Z,99.80
2019-01-14T06:54:26.277Z,99.80
2019-01-14T06:56:53.194Z,99.70
2019-01-14T06:59:20.648Z,99.90
2019-01-14T07:01:47.678Z,99.90
2019-01-14T07:04:14.593Z,99.90
2019-01-14T07:06:41.488Z,99.90
2019-01-14T07:09:08.645Z,99.90
2019-01-14T07:11:36.469Z,99.90
2019-01-14T07:14:03.542Z,99.90
2019-01-14T07:16:30.661Z,99.50
2019-01-14T07:18:57.776Z,99.10
2019-01-14T07:21:24.779Z,99.20
2019-01-14T07:23:51.859Z,99.50
2019-01-14T07:26:18.995Z,99.50
2019-01-14T07:28:46.053Z,99.50
2019-01-14T07:31:13.077Z,99.10
2019-01-14T07:33:40.524Z,99.10
2019-01-14T07:36:07.637Z,99.80
2019-01-14T07:38:34.661Z,99.40
2019-01-14T07:41:01.708Z,99.40
2019-01-14T07:43:28.868Z,99.10
2019-01-14T07:45:55.852Z,99.20
2019-01-14T07:48:22.841Z,98.50
2019-01-14T07:50:49.819Z,98.60
2019-01-14T07:53:16.833Z,98.70
2019-01-14T07:55:43.817Z,98.90
2019-01-14T07:58:10.778Z,98.80
2019-01-14T08:00:38.062Z,99.10
2019-01-14T08:03:05.045Z,98.80
2019-01-14T08:05:36.677Z,98.60
2019-01-14T08:08:03.676Z,98.40
2019-01-14T08:10:30.627Z,98.80
2019-01-14T08:12:57.624Z,98.50
2019-01-14T08:15:24.571Z,98.60
2019-01-14T08:17:51.626Z,98.60
2019-01-14T08:20:19.051Z,98.40
2019-01-14T08:22:45.942Z,98.10
2019-01-14T08:25:13.612Z,98.10
2019-01-14T08:27:40.902Z,98.10
2019-01-14T08:30:12.149Z,98.00
2019-01-14T08:32:39.262Z,97.70
2019-01-14T08:35:06.366Z,98.10
2019-01-14T08:37:33.817Z,98.40
2019-01-14T08:40:00.905Z,98.50
2019-01-14T08:42:27.990Z,98.80
2019-01-14T08:44:54.955Z,98.40
2019-01-14T08:47:21.928Z,98.30
2019-01-14T08:49:48.835Z,98.40
2019-01-14T08:52:15.908Z,98.20
2019-01-14T08:54:43.052Z,98.60
2019-01-14T08:57:10.013Z,98.10
2019-01-14T08:59:37.267Z,98.40
2019-01-14T09:02:04.750Z,98.10
2019-01-14T09:04:32.514Z,98.80
2019-01-14T09:06:59.983Z,98.50
2019-01-14T09:09:27.001Z,99.00
2019-01-14T09:11:53.998Z,99.10
2019-01-14T09:14:20.997Z,99.20
2019-01-14T09:16:47.905Z,99.20
2019-01-14T09:19:14.997Z,99.20
2019-01-14T09:21:42.049Z,99.60
2019-01-14T09:24:08.990Z,99.30
2019-01-14T09:26:36.212Z,99.90
2019-01-14T09:29:03.130Z,97.20
2019-01-14T09:31:32.061Z,96.90
2019-01-14T09:33:59.589Z,97.00
2019-01-14T09:36:26.502Z,98.10
2019-01-14T09:38:53.561Z,97.10
2019-01-14T09:41:20.547Z,96.90
2019-01-14T09:43:47.463Z,96.50
2019-01-14T09:46:14.466Z,96.00
2019-01-14T09:48:41.518Z,96.40
2019-01-14T09:51:08.557Z,96.90
2019-01-14T09:53:35.529Z,96.40
2019-01-14T09:56:02.760Z,96.30
2019-01-14T09:58:29.713Z,96.50
2019-01-14T10:00:56.701Z,96.50
2019-01-14T10:03:23.731Z,95.80
2019-01-14T10:05:50.770Z,95.50
2019-01-14T10:08:17.909Z,95.10
2019-01-14T10:10:44.882Z,95.10
2019-01-14T10:13:11.793Z,95.10
2019-01-14T10:15:38.826Z,95.20
2019-01-14T10:18:06.047Z,95.00
2019-01-14T10:20:33.053Z,95.70
2019-01-14T10:22:59.964Z,96.80
2019-01-14T10:25:27.075Z,96.60
2019-01-14T10:27:54.057Z,95.90
2019-01-14T10:30:21.143Z,96.20
2019-01-14T10:32:48.115Z,96.60
2019-01-14T10:35:15.325Z,96.80
2019-01-14T10:37:42.335Z,96.80
2019-01-14T10:40:10.830Z,97.00
2019-01-14T10:42:37.864Z,97.10
2019-01-14T10:45:08.282Z,97.50
2019-01-14T10:47:35.312Z,97.10
2019-01-14T10:50:03.120Z,96.90
2019-01-14T10:52:30.123Z,96.20
2019-01-14T10:54:57.257Z,96.20
2019-01-14T10:57:24.329Z,95.30
2019-01-14T10:59:51.521Z,94.90
2019-01-14T11:02:18.841Z,95.80
2019-01-14T11:04:45.778Z,95.00
2019-01-14T11:07:12.737Z,95.20
2019-01-14T11:09:44.552Z,95.30
2019-01-14T11:12:08.710Z,95.70
2019-01-14T11:14:35.804Z,95.50
2019-01-14T11:17:02.954Z,95.40
2019-01-14T11:19:29.930Z,95.30
2019-01-14T11:21:56.857Z,95.70
2019-01-14T11:24:23.787Z,95.50
2019-01-14T11:26:51.044Z,95.60
2019-01-14T11:29:17.921Z,94.80
2019-01-14T11:31:44.898Z,95.30
2019-01-14T11:34:11.793Z,95.00
2019-01-14T11:36:38.742Z,93.80
2019-01-14T11:39:15.544Z,94.30
2019-01-14T11:41:42.526Z,93.60
2019-01-14T11:44:09.405Z,93.50
2019-01-14T11:46:36.389Z,94.10
2019-01-14T11:49:03.421Z,93.60
2019-01-14T11:51:30.923Z,93.80
2019-01-14T11:53:57.988Z,94.10
2019-01-14T11:56:24.962Z,93.00
2019-01-14T11:58:51.975Z,92.20
2019-01-14T12:01:18.986Z,92.00
2019-01-14T12:03:46.038Z,91.80
2019-01-14T12:06:13.102Z,91.30
2019-01-14T12:08:40.026Z,91.60
2019-01-14T12:11:07.106Z,92.30
2019-01-14T12:13:34.045Z,91.60
2019-01-14T12:16:02.145Z,90.90
2019-01-14T12:18:29.203Z,90.90
2019-01-14T12:20:56.090Z,90.50
2019-01-14T12:23:23.494Z,90.90
2019-01-14T12:25:50.597Z,91.00
2019-01-14T12:28:17.628Z,89.60
2019-01-14T12:30:45.152Z,90.10
2019-01-14T12:33:12.217Z,91.00
2019-01-14T12:35:39.133Z,90.40
2019-01-14T12:38:06.181Z,89.00
2019-01-14T12:40:33.117Z,88.20
2019-01-14T12:43:00.180Z,88.40
2019-01-14T12:45:27.191Z,87.40
2019-01-14T12:47:54.151Z,85.60
2019-01-14T12:50:21.121Z,86.00
2019-01-14T12:52:48.055Z,86.60
2019-01-14T12:55:15.172Z,87.10
2019-01-14T12:57:42.278Z,86.40
2019-01-14T13:00:15.188Z,86.20
2019-01-14T13:02:42.092Z,86.40
2019-01-14T13:05:09.858Z,85.70
2019-01-14T13:07:36.875Z,86.70
2019-01-14T13:10:04.612Z,86.20
2019-01-14T13:12:31.615Z,85.60
2019-01-14T13:14:58.618Z,86.80
2019-01-14T13:17:25.586Z,86.20
2019-01-14T13:19:52.538Z,86.70
2019-01-14T13:22:19.482Z,85.00
2019-01-14T13:24:46.413Z,84.20
2019-01-14T13:27:13.541Z,81.80
2019-01-14T13:29:40.550Z,82.20
2019-01-14T13:32:07.490Z,82.10
2019-01-14T13:34:34.399Z,82.50
2019-01-14T13:37:01.356Z,82.10
2019-01-14T13:39:33.930Z,83.60
2019-01-14T13:41:57.213Z,83.20
2019-01-14T13:44:24.411Z,84.00
2019-01-14T13:46:51.680Z,83.60
2019-01-14T13:49:18.731Z,83.80
2019-01-14T13:51:47.022Z,83.80
2019-01-14T13:54:14.158Z,83.80
2019-01-14T13:56:41.143Z,83.70
2019-01-14T13:59:08.176Z,83.70
2019-01-14T14:01:35.288Z,83.50
2019-01-14T14:04:02.451Z,83.10
2019-01-14T14:06:29.436Z,81.70
2019-01-14T14:08:56.457Z,82.50
2019-01-14T14:11:23.368Z,80.80
2019-01-14T14:13:50.632Z,79.80
2019-01-14T14:16:17.666Z,80.30
2019-01-14T14:18:44.692Z,79.60
2019-01-14T14:21:11.747Z,81.20
2019-01-14T14:23:38.685Z,80.70
2019-01-14T14:26:05.748Z,81.10
2019-01-14T14:28:32.767Z,81.70
2019-01-14T14:30:59.671Z,82.10
2019-01-14T14:33:26.681Z,83.20
2019-01-14T14:35:53.569Z,82.70
2019-01-14T14:38:20.534Z,83.30
2019-01-14T14:40:47.517Z,83.30
2019-01-14T14:43:14.509Z,83.40
2019-01-14T14:45:41.609Z,82.50
2019-01-14T14:48:10.400Z,83.00
2019-01-14T14:50:37.454Z,83.50
2019-01-14T14:53:04.430Z,81.60
2019-01-14T14:55:31.378Z,82.50
2019-01-14T14:57:58.410Z,82.90
2019-01-14T15:00:25.676Z,82.20
2019-01-14T15:02:52.658Z,81.60
2019-01-14T15:05:19.811Z,80.30
2019-01-14T15:07:46.924Z,81.20
2019-01-14T15:10:15.584Z,81.30
2019-01-14T15:12:42.537Z,79.50
2019-01-14T15:15:11.548Z,79.70
2019-01-14T15:17:38.546Z,79.70
2019-01-14T15:20:09.252Z,79.00
2019-01-14T15:22:36.237Z,78.90
2019-01-14T15:25:03.567Z,79.40
2019-01-14T15:27:30.777Z,78.70
2019-01-14T15:29:57.856Z,78.70
2019-01-14T15:32:26.847Z,79.60
2019-01-14T15:34:53.925Z,79.70
2019-01-14T15:37:20.809Z,80.70
2019-01-14T15:39:47.727Z,81.80
2019-01-14T15:42:14.797Z,82.50
2019-01-14T15:44:41.788Z,83.00
2019-01-14T15:47:08.794Z,83.00
2019-01-14T15:49:35.732Z,83.60
2019-01-14T15:52:02.952Z,82.80
2019-01-14T15:54:29.911Z,81.90
2019-01-14T15:56:56.947Z,81.90
2019-01-14T15:59:23.969Z,80.10
2019-01-14T16:01:51.011Z,80.50
2019-01-14T16:04:17.973Z,80.90
2019-01-14T16:06:44.927Z,80.50
2019-01-14T16:09:11.950Z,80.00
2019-01-14T16:11:38.954Z,80.20
2019-01-14T16:14:06.049Z,80.60
2019-01-14T16:16:32.949Z,80.60
2019-01-14T16:18:59.890Z,81.20
2019-01-14T16:21:26.920Z,81.40
2019-01-14T16:23:53.889Z,81.60
2019-01-14T16:26:21.488Z,81.10
2019-01-14T16:28:50.370Z,81.10
2019-01-14T16:31:18.899Z,81.80
2019-01-14T16:33:51.919Z,82.10
2019-01-14T16:36:18.861Z,82.10
2019-01-14T16:38:45.914Z,82.10
2019-01-14T16:41:12.793Z,82.00
2019-01-14T16:43:39.734Z,82.00
2019-01-14T16:46:06.762Z,82.00
2019-01-14T16:48:33.801Z,82.00
2019-01-14T16:51:00.804Z,82.10
2019-01-14T16:53:27.852Z,82.00
2019-01-14T16:55:54.826Z,81.90
2019-01-14T16:58:21.977Z,82.30
2019-01-14T17:00:49.025Z,82.50
2019-01-14T17:03:16.221Z,82.90
2019-01-14T17:05:43.145Z,83.10
2019-01-14T17:08:10.199Z,83.30
2019-01-14T17:10:37.252Z,84.00
2019-01-14T17:13:04.374Z,84.10
2019-01-14T17:15:31.592Z,84.60
2019-01-14T17:18:00.360Z,84.60
2019-01-14T17:20:27.478Z,84.50
2019-01-14T17:22:54.401Z,84.70
2019-01-14T17:25:21.328Z,85.00
2019-01-14T17:27:48.573Z,84.90
2019-01-14T17:30:16.101Z,85.00
2019-01-14T17:32:43.103Z,85.10
2019-01-14T17:35:10.186Z,85.50
2019-01-14T17:37:37.181Z,85.70
2019-01-14T17:40:06.946Z,85.90
2019-01-14T17:42:33.981Z,85.60
2019-01-14T17:45:00.915Z,86.00
2019-01-14T17:47:28.100Z,86.10
2019-01-14T17:49:55.176Z,86.30
2019-01-14T17:52:22.342Z,86.10
2019-01-14T17:54:49.430Z,86.20
2019-01-14T17:57:16.608Z,86.30
2019-01-14T17:59:43.677Z,86.60
2019-01-14T18:02:10.804Z,86.30
2019-01-14T18:04:38.000Z,85.80
2019-01-14T18:07:05.002Z,85.90
2019-01-14T18:09:32.014Z,85.90
2019-01-14T18:11:58.964Z,85.90
2019-01-14T18:14:26.329Z,85.90
2019-01-14T18:16:53.311Z,85.90
2019-01-14T18:19:20.360Z,86.10
2019-01-14T18:21:47.350Z,86.00
2019-01-14T18:24:15.752Z,86.30
2019-01-14T18:26:42.757Z,86.40
2019-01-14T18:29:09.845Z,86.90
2019-01-14T18:31:37.017Z,87.00
2019-01-14T18:34:03.935Z,87.20
2019-01-14T18:36:31.060Z,87.50
2019-01-14T18:38:58.098Z,87.60
2019-01-14T18:41:25.126Z,87.80
2019-01-14T18:43:52.467Z,88.10
2019-01-14T18:46:19.450Z,87.70
2019-01-14T18:48:46.576Z,88.00
2019-01-14T18:51:16.748Z,88.00
2019-01-14T18:53:43.797Z,88.00
2019-01-14T18:56:10.988Z,88.00
2019-01-14T18:58:38.002Z,87.90
2019-01-14T19:01:05.061Z,88.00
2019-01-14T19:03:31.954Z,87.80
2019-01-14T19:05:58.981Z,87.80
2019-01-14T19:08:25.966Z,87.70
2019-01-14T19:10:54.494Z,87.50
2019-01-14T19:13:21.716Z,87.10
2019-01-14T19:15:48.770Z,86.80
2019-01-14T19:18:16.041Z,86.00
2019-01-14T19:20:43.144Z,85.80
2019-01-14T19:23:10.231Z,85.40
2019-01-14T19:25:37.356Z,85.20
2019-01-14T19:28:04.722Z,84.90
2019-01-14T19:30:32.796Z,84.80
2019-01-14T19:32:59.769Z,84.20
2019-01-14T19:35:26.713Z,84.50
2019-01-14T19:37:54.158Z,85.30
2019-01-14T19:40:21.297Z,85.50
2019-01-14T19:42:48.282Z,85.80
2019-01-14T19:45:16.515Z,85.70
2019-01-14T19:47:43.645Z,85.60
2019-01-14T19:50:14.104Z,85.90
2019-01-14T19:52:41.220Z,86.00
2019-01-14T19:55:08.189Z,86.00
2019-01-14T19:57:35.217Z,86.00
2019-01-14T20:00:04.384Z,85.90
2019-01-14T20:02:31.423Z,85.50
2019-01-14T20:04:58.557Z,85.40
2019-01-14T20:07:25.651Z,85.30
2019-01-14T20:09:52.885Z,84.80
2019-01-14T20:12:19.877Z,84.70
2019-01-14T20:14:47.001Z,84.30
2019-01-14T20:17:14.008Z,84.00
2019-01-14T20:19:41.233Z,83.50
2019-01-14T20:22:08.248Z,83.50
2019-01-14T20:24:35.206Z,83.40
2019-01-14T20:27:02.592Z,84.00
2019-01-14T20:29:29.817Z,83.20
2019-01-14T20:31:57.056Z,83.10
2019-01-14T20:34:24.120Z,83.00
2019-01-14T20:36:51.182Z,83.60
2019-01-14T20:39:18.114Z,83.30
2019-01-14T20:41:45.238Z,83.40
2019-01-14T20:44:12.371Z,84.00
2019-01-14T20:46:39.423Z,84.00
2019-01-14T20:49:06.345Z,83.90
2019-01-14T20:51:33.336Z,83.90
2019-01-14T20:54:00.338Z,83.10
2019-01-14T20:56:27.309Z,82.30
2019-01-14T20:58:54.521Z,82.00
2019-01-14T21:01:21.581Z,82.10
2019-01-14T21:03:48.849Z,82.20
2019-01-14T21:06:15.966Z,82.90
2019-01-14T21:08:43.691Z,82.30
2019-01-14T21:11:11.011Z,82.20
2019-01-14T21:13:38.591Z,82.30
2019-01-14T21:16:05.754Z,82.30
2019-01-14T21:18:33.200Z,83.10
2019-01-14T21:21:00.336Z,83.80
2019-01-14T21:23:27.612Z,83.80
2019-01-14T21:25:54.864Z,84.30
2019-01-14T21:28:22.048Z,84.70
2019-01-14T21:30:49.188Z,84.90
2019-01-14T21:33:16.297Z,85.00
2019-01-14T21:35:43.373Z,85.00
2019-01-14T21:38:10.400Z,85.10
2019-01-14T21:40:37.531Z,85.50
2019-01-14T21:43:04.793Z,85.80
2019-01-14T21:45:32.001Z,85.80
2019-01-14T21:47:59.192Z,85.70
2019-01-14T21:50:26.306Z,85.90
2019-01-14T21:52:53.441Z,86.20
2019-01-14T21:55:23.323Z,86.10
2019-01-14T21:57:50.328Z,86.10
2019-01-14T22:00:21.278Z,85.70
2019-01-14T22:02:50.061Z,86.20
2019-01-14T22:05:18.169Z,86.30
2019-01-14T22:07:46.498Z,86.20
2019-01-14T22:10:33.011Z,85.90
2019-01-14T22:13:00.238Z,85.90
2019-01-14T22:15:27.208Z,85.90
2019-01-14T22:17:54.302Z,85.70
2019-01-14T22:20:24.802Z,85.10
2019-01-14T22:22:52.956Z,85.10
2019-01-14T22:25:20.137Z,85.00
2019-01-14T22:27:47.293Z,85.20
2019-01-14T22:30:17.085Z,85.00
2019-01-14T22:32:44.424Z,85.40
2019-01-14T22:35:12.165Z,85.40
2019-01-14T22:37:40.464Z,85.30
2019-01-14T22:40:08.618Z,85.10
2019-01-14T22:42:35.827Z,85.20
2019-01-14T22:45:04.261Z,85.30
2019-01-14T22:47:31.242Z,85.40
2019-01-14T22:49:58.420Z,85.30
2019-01-14T22:52:25.451Z,84.70
2019-01-14T22:54:52.480Z,84.60
2019-01-14T22:57:19.517Z,85.00
2019-01-14T22:59:46.858Z,85.50
2019-01-14T23:02:14.350Z,85.30
2019-01-14T23:04:41.304Z,85.50
2019-01-14T23:07:08.203Z,85.10
2019-01-14T23:09:35.189Z,85.60
2019-01-14T23:12:02.153Z,85.70
2019-01-14T23:14:29.110Z,85.40
2019-01-14T23:16:56.218Z,84.80
2019-01-14T23:19:23.286Z,84.80
2019-01-14T23:21:50.265Z,84.70
2019-01-14T23:24:17.165Z,84.80
2019-01-14T23:26:44.325Z,85.60
2019-01-14T23:29:11.260Z,86.00
2019-01-14T23:31:38.273Z,86.20
2019-01-14T23:34:05.150Z,86.20
2019-01-14T23:36:32.081Z,85.90
2019-01-14T23:38:59.018Z,85.50
2019-01-14T23:41:25.968Z,86.00
2019-01-14T23:43:52.913Z,85.90
2019-01-14T23:46:21.540Z,85.80
2019-01-14T23:48:48.519Z,85.20
2019-01-14T23:51:15.553Z,85.70
2019-01-14T23:53:42.732Z,85.40
2019-01-14T23:56:09.868Z,85.00
2019-01-14T23:58:36.983Z,85.70
